Time;durP1;ratioP1;P1;durP2;ratioP2;P2;SDS_P1;SDS_P2;PMS_P1;PMS_P2;Temp;Humidity;BMP_temperature;BMP_pressure;BME280_temperature;BME280_humidity;BME280_pressure;Samples;Min_cycle;Max_cycle;Signal;HPM_P1;HPM_P2
2021/03/24 00:01:37;;;;;;;56.07;27.60;;;;;;;5.65;67.17;101034.51;98699;1160;82007;-61
2021/03/24 00:03:43;;;;;;;36.40;16.77;;;;;;;5.65;67.19;101042.55;98743;1155;71475;-61
2021/03/24 00:05:52;;;;;;;39.97;19.83;;;;;;;5.64;67.18;101042.67;98711;1155;84884;-61
2021/03/24 00:07:58;;;;;;;20.57;11.70;;;;;;;5.62;67.21;101036.62;98716;1155;77237;-62
2021/03/24 00:10:07;;;;;;;38.80;21.27;;;;;;;5.61;67.04;101032.23;98763;1160;64202;-61
2021/03/24 00:12:16;;;;;;;36.47;20.10;;;;;;;5.56;67.34;101027.31;98781;1153;80943;-63
2021/03/24 00:14:22;;;;;;;58.67;33.80;;;;;;;5.55;67.33;101024.79;98730;1161;70835;-63
2021/03/24 00:16:28;;;;;;;83.77;48.30;;;;;;;5.51;67.43;101029.58;98719;1155;85120;-62
2021/03/24 00:18:35;;;;;;;56.03;35.03;;;;;;;5.47;67.20;101033.51;98701;1161;77839;-62
2021/03/24 00:20:43;;;;;;;28.83;19.00;;;;;;;5.45;67.22;101042.67;98722;1161;64202;-61
2021/03/24 00:22:49;;;;;;;16.43;10.03;;;;;;;5.44;67.49;101036.47;98772;1161;81940;-63
2021/03/24 00:24:55;;;;;;;14.60;9.10;;;;;;;5.41;67.56;101041.28;98703;1161;72360;-63
2021/03/24 00:27:01;;;;;;;27.13;15.20;;;;;;;5.44;67.47;101035.64;98719;1155;85209;-60
2021/03/24 00:29:07;;;;;;;22.80;11.20;;;;;;;5.40;67.75;101043.11;98706;1153;77570;-61
2021/03/24 00:31:12;;;;;;;40.30;22.07;;;;;;;5.40;67.86;101042.26;98745;1155;64276;-62
2021/03/24 00:33:22;;;;;;;22.97;11.53;;;;;;;5.35;67.83;101043.55;98756;1161;83194;-60
2021/03/24 00:35:29;;;;;;;22.87;10.20;;;;;;;5.32;67.99;101042.97;98734;1155;71942;-60
2021/03/24 00:37:35;;;;;;;11.93;6.50;;;;;;;5.31;67.78;101052.83;98785;1155;84756;-60
2021/03/24 00:39:41;;;;;;;21.73;10.20;;;;;;;5.30;68.24;101044.95;98720;1160;77651;-61
2021/03/24 00:41:47;;;;;;;26.30;12.97;;;;;;;5.31;67.95;101046.62;98711;1155;64081;-61
2021/03/24 00:43:56;;;;;;;23.83;13.47;;;;;;;5.25;67.92;101056.05;98718;1160;82251;-63
2021/03/24 00:46:02;;;;;;;33.43;18.13;;;;;;;5.26;68.06;101055.09;98705;1155;70748;-62
2021/03/24 00:48:18;;;;;;;25.10;15.33;;;;;;;5.29;67.81;101056.64;98822;1155;83580;-61
2021/03/24 00:50:29;;;;;;;25.17;14.70;;;;;;;5.24;68.08;101049.03;98754;1155;78755;-61
2021/03/24 00:52:34;;;;;;;33.57;19.53;;;;;;;5.23;68.11;101054.51;98818;1155;64346;-63
2021/03/24 00:54:40;;;;;;;33.50;18.63;;;;;;;5.19;68.29;101056.61;98694;1159;82924;-62
2021/03/24 00:56:47;;;;;;;24.00;12.97;;;;;;;5.17;68.22;101053.23;98715;1155;71428;-62
2021/03/24 00:58:52;;;;;;;23.77;13.27;;;;;;;5.15;68.28;101046.32;98729;1155;84242;-61
2021/03/24 01:00:58;;;;;;;22.23;11.53;;;;;;;5.13;68.27;101054.51;98721;1155;77141;-60
2021/03/24 01:03:05;;;;;;;24.55;11.90;;;;;;;5.09;68.49;101050.40;98719;1155;64309;-63
2021/03/24 01:05:15;;;;;;;27.97;15.57;;;;;;;5.06;68.54;101053.35;98734;1161;81410;-62
2021/03/24 01:07:24;;;;;;;23.80;14.30;;;;;;;5.00;68.91;101056.57;98710;1155;71341;-63
2021/03/24 01:09:30;;;;;;;17.40;11.07;;;;;;;4.98;68.71;101063.91;98715;1161;86055;-63
2021/03/24 01:11:37;;;;;;;18.00;11.83;;;;;;;4.98;68.61;101061.22;98736;1159;76870;-62
2021/03/24 01:13:43;;;;;;;13.93;8.57;;;;;;;4.94;68.78;101061.65;98772;1154;64190;-61
2021/03/24 01:15:49;;;;;;;18.50;11.23;;;;;;;4.94;68.90;101059.83;98749;1160;82198;-61
2021/03/24 01:17:58;;;;;;;10.23;5.50;;;;;;;4.93;68.79;101055.44;98756;1155;71555;-61
2021/03/24 01:20:07;;;;;;;10.27;6.17;;;;;;;4.90;68.98;101062.89;98738;1154;84486;-61
2021/03/24 01:22:12;;;;;;;11.00;7.67;;;;;;;4.87;68.84;101061.34;98739;1155;77490;-61
2021/03/24 01:24:18;;;;;;;12.47;6.03;;;;;;;4.84;68.93;101053.58;98736;1155;64484;-62
2021/03/24 01:26:24;;;;;;;12.67;9.33;;;;;;;4.83;69.04;101059.08;98742;1161;81328;-62
2021/03/24 01:28:32;;;;;;;11.40;8.45;;;;;;;4.79;68.98;101055.82;98751;1155;72360;-62
2021/03/24 01:30:38;;;;;;;12.53;7.27;;;;;;;4.76;69.10;101058.77;98757;1155;84915;-62
2021/03/24 01:32:48;;;;;;;10.50;7.53;;;;;;;4.73;69.13;101053.68;98723;1155;77801;-61
2021/03/24 01:34:53;;;;;;;12.10;7.93;;;;;;;4.73;69.06;101053.68;98766;1155;64433;-61
2021/03/24 01:36:59;;;;;;;13.63;7.97;;;;;;;4.72;69.28;101054.69;98709;1160;81542;-62
2021/03/24 01:39:07;;;;;;;10.23;6.20;;;;;;;4.70;69.13;101057.48;98691;1155;71549;-63
2021/03/24 01:41:13;;;;;;;16.67;11.43;;;;;;;4.68;69.31;101061.27;98738;1155;84627;-63
2021/03/24 01:43:25;;;;;;;11.93;6.00;;;;;;;4.65;69.77;101061.55;98744;1153;77786;-62
2021/03/24 01:46:26;;;;;;;9.50;6.10;;;;;;;4.66;69.55;101060.57;98725;1161;64208;-62
2021/03/24 01:48:32;;;;;;;14.27;8.20;;;;;;;4.62;69.27;101057.31;98808;1160;82179;-60
2021/03/24 01:50:40;;;;;;;13.13;5.93;;;;;;;4.63;69.56;101056.34;98725;1155;70687;-61
2021/03/24 01:52:46;;;;;;;10.97;6.90;;;;;;;4.63;69.61;101061.69;98818;1155;83281;-62
2021/03/24 01:54:53;;;;;;;11.27;6.27;;;;;;;4.65;69.48;101051.69;98741;1154;78010;-63
2021/03/24 01:57:04;;;;;;;12.70;7.27;;;;;;;4.61;69.67;101050.28;98748;1160;64328;-63
2021/03/24 01:59:14;;;;;;;10.80;7.20;;;;;;;4.61;69.95;101050.28;98746;1161;80541;-63
2021/03/24 02:01:24;;;;;;;11.20;6.40;;;;;;;4.56;70.03;101047.14;98745;1155;70567;-63
2021/03/24 02:03:31;;;;;;;13.07;6.37;;;;;;;4.52;70.45;101050.23;98796;1155;84208;-62
2021/03/24 02:05:37;;;;;;;13.47;5.90;;;;;;;4.53;70.11;101043.91;98738;1155;77173;-62
2021/03/24 02:07:52;;;;;;;11.70;6.77;;;;;;;4.52;70.16;101050.23;98764;1155;64360;-62
2021/03/24 02:10:06;;;;;;;11.87;6.23;;;;;;;4.50;70.46;101052.20;98756;1160;81941;-61
2021/03/24 02:12:19;;;;;;;11.10;5.73;;;;;;;4.50;70.04;101054.88;98771;1155;71599;-60
2021/03/24 02:14:35;;;;;;;13.70;5.63;;;;;;;4.52;70.36;101050.23;98807;1155;83664;-62
2021/03/24 02:16:46;;;;;;;12.63;5.67;;;;;;;4.50;70.45;101057.55;98818;1139;78299;-62
2021/03/24 02:18:56;;;;;;;11.07;6.20;;;;;;;4.47;70.38;101063.17;98782;1155;64273;-63
2021/03/24 02:21:11;;;;;;;11.60;6.13;;;;;;;4.44;70.47;101063.44;98784;1161;81714;-61
2021/03/24 02:23:29;;;;;;;10.30;5.60;;;;;;;4.47;70.29;101058.67;98810;1155;70678;-60
2021/03/24 02:25:46;;;;;;;10.13;5.43;;;;;;;4.48;70.50;101063.02;98811;1155;84931;-61
2021/03/24 02:27:56;;;;;;;10.80;5.20;;;;;;;4.47;70.62;101063.17;98798;1155;77338;-63
2021/03/24 02:30:10;;;;;;;11.50;6.07;;;;;;;4.46;70.42;101062.31;98790;1161;64215;-64
2021/03/24 02:32:20;;;;;;;10.20;5.50;;;;;;;4.43;70.65;101065.26;98772;1161;81200;-62
2021/03/24 02:34:30;;;;;;;11.63;5.63;;;;;;;4.40;70.53;101067.34;98772;1155;72848;-63
2021/03/24 02:36:38;;;;;;;14.10;5.80;;;;;;;4.39;70.75;101074.55;98738;1155;85465;-61
2021/03/24 02:38:50;;;;;;;12.77;5.97;;;;;;;4.38;70.87;101075.52;98687;1155;78300;-60
2021/03/24 02:40:58;;;;;;;11.87;6.20;;;;;;;4.40;71.02;101070.02;98758;1155;64347;-60
2021/03/24 02:43:06;;;;;;;9.90;5.70;;;;;;;4.43;70.92;101072.43;98718;1161;81219;-60
2021/03/24 02:45:22;;;;;;;9.80;5.90;;;;;;;4.44;71.66;101074.98;98718;1159;71979;-60
2021/03/24 02:47:27;;;;;;;10.10;6.13;;;;;;;4.42;71.13;101082.27;98809;1161;83954;-61
2021/03/24 02:49:35;;;;;;;14.20;6.03;;;;;;;4.41;71.26;101079.75;98757;1155;77241;-63
2021/03/24 02:51:42;;;;;;;12.43;6.10;;;;;;;4.40;71.33;101086.06;98746;1155;64398;-62
2021/03/24 02:53:50;;;;;;;13.87;7.00;;;;;;;4.42;71.53;101086.80;98708;1159;81826;-60
2021/03/24 02:55:59;;;;;;;10.90;6.23;;;;;;;4.45;71.54;101083.87;98687;1161;70873;-63
2021/03/24 02:58:05;;;;;;;11.33;6.27;;;;;;;4.48;71.42;101087.09;98775;1155;84897;-63
2021/03/24 03:00:19;;;;;;;12.80;6.90;;;;;;;4.49;71.54;101088.80;98694;1155;77470;-63
2021/03/24 03:02:28;;;;;;;;;;;;;;;4.52;71.48;101085.02;98786;1161;64210;-62
2021/03/24 03:04:39;;;;;;;9.23;6.50;;;;;;;4.55;71.43;101082.07;98742;1161;81664;-62
2021/03/24 03:06:49;;;;;;;8.93;6.27;;;;;;;4.50;71.89;101082.48;98724;1155;71570;-63
2021/03/24 03:09:04;;;;;;;11.10;6.17;;;;;;;4.47;71.70;101089.92;98704;1155;85132;-63
2021/03/24 03:11:18;;;;;;;13.37;6.47;;;;;;;4.44;71.46;101085.69;98733;1155;77814;-62
2021/03/24 03:13:31;;;;;;;;;;;;;;;4.45;71.34;101086.54;98836;1161;64311;-60
2021/03/24 03:15:44;;;;;;;12.60;6.77;;;;;;;4.43;71.55;101085.80;98712;1159;82124;-61
2021/03/24 03:17:59;;;;;;;11.70;6.68;;;;;;;4.43;71.70;101093.83;98757;1155;71593;-62
2021/03/24 03:20:17;;;;;;;14.03;6.63;;;;;;;4.42;71.72;101084.95;98745;1159;83430;-62
2021/03/24 03:22:30;;;;;;;11.43;6.80;;;;;;;4.44;72.20;101090.19;98751;1161;77491;-62
2021/03/24 03:24:44;;;;;;;15.03;6.73;;;;;;;4.38;71.92;101096.91;98741;1159;64238;-61
2021/03/24 03:26:56;;;;;;;11.50;6.97;;;;;;;4.35;71.90;101097.17;98762;1161;82376;-62
2021/03/24 03:29:12;;;;;;;12.03;6.30;;;;;;;4.31;72.08;101097.58;98740;1155;70605;-62
2021/03/24 03:31:26;;;;;;;14.90;7.17;;;;;;;4.29;72.08;101091.49;98777;1155;84704;-61
2021/03/24 03:33:39;;;;;;;16.23;7.10;;;;;;;4.32;71.90;101088.56;98805;1155;76718;-61
2021/03/24 03:35:48;;;;;;;13.40;7.27;;;;;;;4.28;72.25;101089.82;98760;1155;64475;-62
2021/03/24 03:37:58;;;;;;;14.67;7.60;;;;;;;4.26;72.27;101091.79;98708;1161;82391;-62
2021/03/24 03:40:08;;;;;;;11.83;7.00;;;;;;;4.29;72.20;101091.49;98758;1155;70825;-62
2021/03/24 03:42:14;;;;;;;13.53;7.37;;;;;;;4.30;72.33;101091.38;98796;1155;84032;-61
2021/03/24 03:44:21;;;;;;;13.13;7.93;;;;;;;4.29;72.19;101088.82;98682;1155;77381;-61
2021/03/24 03:46:32;;;;;;;13.43;8.00;;;;;;;4.29;72.32;101091.49;98715;1155;64229;-60
2021/03/24 03:48:41;;;;;;;12.97;7.80;;;;;;;4.29;72.35;101094.16;98729;1161;81115;-61
2021/03/24 03:50:52;;;;;;;11.57;7.30;;;;;;;4.29;72.44;101099.52;98781;1155;70880;-61
2021/03/24 03:53:11;;;;;;;10.97;7.33;;;;;;;4.29;72.35;101099.52;98789;1155;84981;-60
2021/03/24 03:55:30;;;;;;;12.37;7.33;;;;;;;4.25;72.32;101090.94;98730;1161;78460;-60
2021/03/24 03:57:50;;;;;;;12.83;7.20;;;;;;;4.24;72.60;101096.39;98778;1155;64714;-60
2021/03/24 04:00:09;;;;;;;17.20;7.83;;;;;;;4.18;72.65;101095.95;98718;1161;82131;-60
2021/03/24 04:02:21;;;;;;;14.97;7.40;;;;;;;4.15;72.63;101098.88;98812;1155;71509;-61
2021/03/24 04:04:33;;;;;;;14.50;7.77;;;;;;;4.16;72.82;101091.71;98711;1160;84297;-61
2021/03/24 04:06:46;;;;;;;13.50;7.57;;;;;;;4.21;72.60;101088.63;98681;1154;78760;-61
2021/03/24 04:08:57;;;;;;;13.00;7.50;;;;;;;4.25;72.52;101092.75;98729;1155;64180;-60
2021/03/24 04:11:09;;;;;;;14.90;7.97;;;;;;;4.21;72.71;101096.66;98754;1159;81784;-59
2021/03/24 04:13:16;;;;;;;12.07;7.90;;;;;;;4.20;72.54;101098.51;98741;1155;70756;-59
2021/03/24 04:15:26;;;;;;;15.50;7.97;;;;;;;4.21;72.66;101093.98;98727;1153;84610;-58
2021/03/24 04:17:41;;;;;;;15.03;7.60;;;;;;;4.18;72.70;101090.59;98777;1155;78597;-62
2021/03/24 04:19:51;;;;;;;15.25;7.55;;;;;;;4.18;72.67;101098.63;98725;1155;64078;-63
2021/03/24 04:22:01;;;;;;;12.60;7.50;;;;;;;4.20;72.70;101092.31;98691;1161;81577;-64
2021/03/24 04:24:14;;;;;;;14.83;8.17;;;;;;;4.20;72.73;101095.84;98740;1155;72316;-64
2021/03/24 04:26:23;;;;;;;;;;;;;;;4.20;72.58;101103.00;98882;1137;84368;-62
2021/03/24 04:28:34;;;;;;;14.03;7.97;;;;;;;4.13;72.82;101100.84;98754;1155;78098;-63
2021/03/24 04:30:46;;;;;;;16.30;8.17;;;;;;;4.15;72.74;101096.20;98740;1155;64478;-64
2021/03/24 04:32:52;;;;;;;13.10;8.50;;;;;;;4.18;72.68;101089.75;98787;1161;82522;-63
2021/03/24 04:34:58;;;;;;;15.67;8.00;;;;;;;4.20;72.82;101087.81;98745;1155;71044;-60
2021/03/24 04:37:16;;;;;;;14.73;8.20;;;;;;;4.23;72.69;101100.89;98835;1154;84786;-64
2021/03/24 04:39:32;;;;;;;14.37;7.90;;;;;;;4.23;72.83;101092.05;98754;1153;78672;-62
2021/03/24 04:41:44;;;;;;;17.33;8.87;;;;;;;4.20;72.87;101097.66;98812;1155;64231;-63
2021/03/24 04:43:57;;;;;;;12.50;8.40;;;;;;;4.25;72.86;101098.95;98702;1161;80843;-64
2021/03/24 04:46:13;;;;;;;14.23;9.05;;;;;;;4.26;72.72;101102.48;98764;1155;71333;-62
2021/03/24 04:48:24;;;;;;;16.03;9.73;;;;;;;4.29;72.66;101102.19;98760;1155;84036;-60
2021/03/24 04:50:33;;;;;;;20.23;9.70;;;;;;;4.26;72.88;101107.83;98724;1155;78251;-64
2021/03/24 04:52:39;;;;;;;15.83;8.40;;;;;;;4.27;72.54;101104.16;98713;1155;64436;-63
2021/03/24 04:54:47;;;;;;;15.63;9.07;;;;;;;4.26;72.95;101114.00;98727;1160;82712;-62
2021/03/24 04:56:57;;;;;;;14.50;8.50;;;;;;;4.29;72.91;101116.41;98866;1139;71595;-62
2021/03/24 04:59:09;;;;;;;16.60;8.50;;;;;;;4.26;73.00;101123.88;98732;1155;85229;-62
2021/03/24 05:01:27;;;;;;;15.00;8.70;;;;;;;4.27;73.01;101129.08;98736;1155;77617;-62
2021/03/24 05:03:39;;;;;;;16.07;10.83;;;;;;;4.26;73.00;101119.34;98826;1155;64213;-63
2021/03/24 05:05:52;;;;;;;16.70;10.50;;;;;;;4.27;73.02;101125.55;98809;1159;82623;-62
2021/03/24 05:08:05;;;;;;;18.13;11.43;;;;;;;4.25;73.04;101132.86;98820;1155;70833;-60
2021/03/24 05:10:18;;;;;;;18.40;10.73;;;;;;;4.24;73.01;101132.02;98759;1154;83764;-61
2021/03/24 05:12:31;;;;;;;15.73;10.97;;;;;;;4.24;73.17;101132.02;98782;1161;78335;-63
2021/03/24 05:14:41;;;;;;;20.52;11.95;;;;;;;4.28;73.18;101136.13;98748;1155;64328;-62
2021/03/24 05:17:08;;;;;;;17.87;10.90;;;;;;;4.27;73.26;101131.75;98728;1161;81905;-63
2021/03/24 05:19:24;;;;;;;21.20;10.87;;;;;;;4.31;73.26;101135.02;98778;1153;72221;-61
2021/03/24 05:21:59;;;;;;;17.57;10.87;;;;;;;4.36;73.20;101141.67;98707;1155;84335;-61
2021/03/24 05:24:09;;;;;;;18.60;10.70;;;;;;;4.38;73.28;101133.50;98723;1161;78409;-61
2021/03/24 05:26:27;;;;;;;19.67;10.30;;;;;;;4.41;73.24;101143.94;98726;1155;64245;-60
2021/03/24 05:28:40;;;;;;;18.67;11.23;;;;;;;4.43;73.14;101141.98;98789;1161;81386;-59
2021/03/24 05:30:55;;;;;;;17.10;10.57;;;;;;;4.47;73.09;101138.08;98723;1155;71107;-60
2021/03/24 05:33:06;;;;;;;17.95;11.30;;;;;;;4.52;73.27;101147.40;98815;1155;83993;-60
2021/03/24 05:35:42;;;;;;;18.23;10.93;;;;;;;4.53;73.30;101140.23;98720;1155;78376;-61
2021/03/24 05:37:48;;;;;;;21.13;10.87;;;;;;;4.58;73.18;101144.20;98749;1161;64286;-63
2021/03/24 05:40:21;;;;;;;16.17;10.77;;;;;;;4.58;73.27;101146.88;98738;1160;81170;-61
2021/03/24 05:42:45;;;;;;;19.87;10.40;;;;;;;4.61;73.30;101145.76;98749;1161;70822;-62
2021/03/24 05:45:12;;;;;;;15.78;10.75;;;;;;;4.60;73.34;101146.73;98743;1155;85536;-61
2021/03/24 05:47:48;;;;;;;19.60;10.93;;;;;;;4.66;73.34;101141.70;98723;1154;77196;-64
2021/03/24 05:50:17;;;;;;;18.57;10.27;;;;;;;4.72;73.48;101143.00;98715;1161;64318;-63
2021/03/24 05:52:40;;;;;;;18.10;11.20;;;;;;;4.81;73.67;101146.70;98801;1160;80796;-62
2021/03/24 05:55:01;;;;;;;19.25;11.75;;;;;;;4.78;73.34;101142.44;98790;1161;70851;-62
2021/03/24 05:57:33;;;;;;;15.50;10.50;;;;;;;4.88;73.28;101146.03;98760;1155;84120;-63
2021/03/24 05:59:55;;;;;;;16.93;11.33;;;;;;;4.98;73.21;101144.23;98684;1161;78286;-62
2021/03/24 06:02:13;;;;;;;22.20;12.63;;;;;;;5.07;73.06;101150.59;98739;1155;64916;-61
2021/03/24 06:04:28;;;;;;;21.27;11.73;;;;;;;5.15;73.08;101150.77;98716;1154;80896;-62
2021/03/24 06:07:28;;;;;;;22.67;10.93;;;;;;;5.14;73.01;101154.42;98753;1161;72685;-62
2021/03/24 06:10:31;;;;;;;20.37;11.37;;;;;;;5.20;72.74;101149.38;98754;1155;85738;-61
2021/03/24 06:13:20;;;;;;;19.50;11.23;;;;;;;5.30;72.75;101158.27;98764;1153;76879;-62
2021/03/24 06:15:56;;;;;;;21.47;11.97;;;;;;;5.38;72.80;101154.94;98745;1155;64138;-63
2021/03/24 06:18:47;;;;;;;22.93;12.43;;;;;;;5.47;72.73;101153.23;98727;1161;80606;-62
2021/03/24 06:21:02;;;;;;;20.63;12.13;;;;;;;5.50;72.63;101152.95;98719;1155;71098;-63
2021/03/24 06:23:51;;;;;;;23.73;12.40;;;;;;;5.54;72.88;101152.56;98770;1155;84907;-63
2021/03/24 06:26:11;;;;;;;18.67;11.70;;;;;;;5.66;72.38;101150.61;98700;1159;77216;-62
2021/03/24 06:28:38;;;;;;;20.90;11.55;;;;;;;5.79;72.34;101140.45;98734;1155;64212;-63
2021/03/24 06:30:59;;;;;;;18.97;11.50;;;;;;;5.86;72.46;101147.82;98732;1161;82069;-64
2021/03/24 06:33:47;;;;;;;16.10;11.73;;;;;;;5.96;72.19;101145.13;98700;1155;70935;-61
2021/03/24 06:36:15;;;;;;;16.23;10.90;;;;;;;5.98;71.97;101151.22;98728;1155;84110;-60
2021/03/24 06:39:03;;;;;;;18.30;11.60;;;;;;;6.02;71.85;101155.30;98742;1160;78228;-61
2021/03/24 06:41:34;;;;;;;20.43;11.93;;;;;;;6.11;71.67;101156.28;98710;1155;64280;-61
2021/03/24 06:44:37;;;;;;;20.97;11.87;;;;;;;6.08;71.45;101157.41;98777;1161;82526;-59
2021/03/24 06:46:55;;;;;;;21.33;11.77;;;;;;;6.09;71.40;101159.12;98692;1161;72410;-61
2021/03/24 06:49:28;;;;;;;22.07;12.67;;;;;;;6.18;71.72;101168.16;98736;1155;84325;-61
2021/03/24 06:52:28;;;;;;;20.70;12.37;;;;;;;6.21;71.55;101174.06;98704;1155;76921;-61
2021/03/24 06:55:25;;;;;;;17.97;11.20;;;;;;;6.35;71.03;101176.31;98688;1160;64152;-60
2021/03/24 06:58:05;;;;;;;18.17;11.23;;;;;;;6.35;70.84;101181.67;98648;1159;82510;-63
2021/03/24 07:00:55;;;;;;;17.57;10.97;;;;;;;6.26;70.57;101179.84;98731;1155;71425;-62
2021/03/24 07:04:01;;;;;;;20.50;12.60;;;;;;;6.40;70.62;101189.31;98695;1154;83150;-60
2021/03/24 07:06:39;;;;;;;17.30;10.78;;;;;;;6.49;70.55;101191.12;98751;1160;78289;-61
2021/03/24 07:09:00;;;;;;;20.07;11.93;;;;;;;6.49;70.51;101191.12;98763;1155;64666;-59
2021/03/24 07:11:29;;;;;;;16.83;11.57;;;;;;;6.54;70.46;101187.02;98728;1161;83507;-60
2021/03/24 07:14:07;;;;;;;18.20;10.93;;;;;;;6.73;70.59;101190.66;98732;1161;70633;-61
2021/03/24 07:16:37;;;;;;;19.60;11.85;;;;;;;6.97;70.54;101199.06;98723;1160;84601;-60
2021/03/24 07:19:14;;;;;;;15.93;12.00;;;;;;;7.25;70.40;101198.08;98714;1155;77895;-59
2021/03/24 07:21:57;;;;;;;19.87;12.83;;;;;;;7.51;69.79;101193.72;98741;1159;64209;-60
2021/03/24 07:24:37;;;;;;;17.17;11.97;;;;;;;7.53;69.40;101196.24;98836;1138;81472;-64
2021/03/24 07:26:57;;;;;;;20.77;11.67;;;;;;;7.65;69.55;101205.81;98630;1159;71242;-64
2021/03/24 07:29:27;;;;;;;17.63;11.50;;;;;;;7.79;69.03;101202.61;98635;1152;85470;-64
2021/03/24 07:32:07;;;;;;;18.20;12.05;;;;;;;7.83;69.15;101213.92;98645;1153;81559;-63
2021/03/24 07:34:28;;;;;;;23.60;12.20;;;;;;;7.88;68.77;101206.23;98667;1154;63970;-60
2021/03/24 07:36:59;;;;;;;22.23;11.63;;;;;;;7.87;68.34;101210.77;98644;1161;82463;-60
2021/03/24 07:39:39;;;;;;;15.67;10.30;;;;;;;7.94;68.23;101213.70;98615;1155;71277;-63
2021/03/24 07:42:45;;;;;;;14.60;10.17;;;;;;;7.88;68.14;101211.62;98641;1152;84459;-63
2021/03/24 07:45:04;;;;;;;14.63;10.70;;;;;;;7.82;67.91;101215.76;98611;1161;77489;-57
2021/03/24 07:47:35;;;;;;;38.93;26.57;;;;;;;7.77;67.49;101219.90;98668;1155;64238;-57
2021/03/24 07:49:59;;;;;;;20.90;15.17;;;;;;;7.91;67.79;101219.39;98814;1137;80718;-63
2021/03/24 07:52:48;;;;;;;;;;;;;;;7.87;67.58;101221.52;98824;1138;71033;-63
2021/03/24 07:55:01;;;;;;;15.07;11.20;;;;;;;7.98;67.23;101228.52;98755;1155;84917;-63
2021/03/24 07:57:27;;;;;;;16.98;11.00;;;;;;;8.09;67.39;101220.23;98700;1154;78111;-61
2021/03/24 07:59:46;;;;;;;17.90;11.57;;;;;;;8.18;67.51;101230.09;99220;1138;63970;-61
2021/03/24 08:02:43;;;;;;;16.43;10.93;;;;;;;8.25;66.95;101229.31;100480;1153;81812;-62
2021/03/24 08:05:24;;;;;;;16.57;10.53;;;;;;;8.16;66.58;101226.68;100558;1153;72924;-60
2021/03/24 08:07:41;;;;;;;16.77;10.47;;;;;;;8.05;67.00;101234.98;100511;1153;84316;-61
2021/03/24 08:10:22;;;;;;;14.77;9.97;;;;;;;8.05;66.47;101229.59;100513;1153;78708;-62
2021/03/24 08:12:56;;;;;;;12.80;9.87;;;;;;;8.06;66.68;101232.15;100419;1154;61871;-63
2021/03/24 08:15:22;;;;;;;15.90;10.40;;;;;;;8.14;66.48;101229.53;100446;1159;80909;-63
2021/03/24 08:17:41;;;;;;;14.13;10.07;;;;;;;8.22;66.13;101228.77;100574;1153;71281;-63
2021/03/24 08:20:10;;;;;;;18.00;10.77;;;;;;;8.26;66.05;101225.63;100588;1153;84256;-62
2021/03/24 08:22:40;;;;;;;22.27;12.83;;;;;;;8.20;65.92;101222.70;100468;1153;77059;-62
2021/03/24 08:25:01;;;;;;;17.53;11.47;;;;;;;8.32;65.86;101226.89;100482;1153;61943;-62
2021/03/24 08:27:11;;;;;;;16.43;11.47;;;;;;;8.55;66.23;101229.92;100433;1159;81980;-62
2021/03/24 08:29:34;;;;;;;17.17;11.03;;;;;;;8.61;65.99;101216.69;100451;1153;71274;-60
2021/03/24 08:32:31;;;;;;;55.37;36.67;;;;;;;8.57;65.33;101228.77;100499;1154;85495;-59
2021/03/24 08:34:58;;;;;;;26.55;18.33;;;;;;;8.58;65.30;101226.92;100501;1153;77684;-59
2021/03/24 08:37:49;;;;;;;18.80;11.43;;;;;;;8.76;65.56;101223.19;100512;1153;61705;-59
2021/03/24 08:40:17;;;;;;;17.67;12.40;;;;;;;8.83;65.15;101218.88;100496;1152;80745;-60
2021/03/24 08:43:13;;;;;;;16.10;11.20;;;;;;;8.87;65.23;101227.50;100458;1159;71262;-59
2021/03/24 08:45:26;;;;;;;15.73;11.40;;;;;;;8.86;65.11;101220.41;100541;1153;83492;-62
2021/03/24 08:47:41;;;;;;;15.15;9.95;;;;;;;8.96;65.28;101221.13;100482;1154;77117;-61
2021/03/24 08:49:53;;;;;;;14.33;9.80;;;;;;;9.00;64.95;101221.67;100494;1153;61903;-60
2021/03/24 08:52:15;;;;;;;17.07;11.47;;;;;;;8.94;64.69;101223.15;100437;1159;81397;-60
2021/03/24 08:54:50;;;;;;;16.63;13.03;;;;;;;8.97;64.55;101222.84;100571;1153;71225;-60
2021/03/24 08:57:09;;;;;;;16.00;10.60;;;;;;;9.05;64.55;101216.64;100472;1153;84435;-60
2021/03/24 08:59:37;;;;;;;14.30;10.17;;;;;;;9.08;64.12;101219.02;100496;1152;77621;-60
2021/03/24 09:02:11;;;;;;;17.73;10.40;;;;;;;9.04;64.15;101213.09;100566;1152;61829;-60
2021/03/24 09:04:58;;;;;;;22.17;15.27;;;;;;;9.01;64.51;101215.29;100639;1152;80797;-62
2021/03/24 09:07:16;;;;;;;21.07;15.83;;;;;;;9.38;63.85;101215.81;100559;1159;72541;-62
2021/03/24 09:09:39;;;;;;;16.57;9.67;;;;;;;9.52;63.62;101219.75;100665;1152;84923;-62
2021/03/24 09:12:01;;;;;;;16.67;12.03;;;;;;;9.44;63.28;101215.17;100559;1152;77568;-62
2021/03/24 09:14:25;;;;;;;27.57;21.23;;;;;;;9.26;63.19;101211.70;100585;1152;61579;-59
2021/03/24 09:17:24;;;;;;;22.23;16.75;;;;;;;9.34;63.23;101209.89;100612;1159;82071;-59
2021/03/24 09:20:21;;;;;;;13.03;10.03;;;;;;;9.52;63.08;101212.51;100590;1152;71603;-59
2021/03/24 09:22:49;;;;;;;12.67;8.37;;;;;;;9.57;62.56;101203.91;100579;1152;84929;-59
2021/03/24 09:25:17;;;;;;;14.27;9.13;;;;;;;9.61;62.54;101211.54;100369;1153;77809;-59
2021/03/24 09:28:09;;;;;;;13.30;10.27;;;;;;;9.66;62.25;101211.89;100549;1152;62011;-59
2021/03/24 09:30:53;;;;;;;12.77;7.97;;;;;;;9.91;62.17;101202.01;100555;1159;82141;-60
2021/03/24 09:33:38;;;;;;;14.90;8.10;;;;;;;9.90;61.80;101195.77;100625;1152;71377;-59
2021/03/24 09:35:56;;;;;;;11.67;8.17;;;;;;;10.06;61.37;101197.63;100606;1153;84913;-60
2021/03/24 09:38:08;;;;;;;10.20;8.67;;;;;;;9.94;60.77;101204.38;101090;1152;78013;-60
2021/03/24 09:40:28;;;;;;;11.07;7.43;;;;;;;9.77;60.75;101205.34;100566;1152;61540;-63
2021/03/24 09:42:41;;;;;;;9.27;6.40;;;;;;;9.61;60.58;101202.59;100597;1152;81788;-62
2021/03/24 09:44:51;;;;;;;9.40;8.00;;;;;;;9.43;60.81;101200.84;100626;1159;71245;-61
2021/03/24 09:47:02;;;;;;;8.07;6.63;;;;;;;9.36;60.54;101201.66;100621;1153;83370;-60
2021/03/24 09:49:19;;;;;;;10.40;7.47;;;;;;;9.29;61.00;101200.59;100543;1152;78622;-60
2021/03/24 09:51:34;;;;;;;14.97;11.00;;;;;;;9.19;60.70;101200.73;100584;1153;62102;-62
2021/03/24 09:53:44;;;;;;;12.00;8.23;;;;;;;9.21;60.57;101197.86;100640;1152;81585;-62
2021/03/24 09:56:06;;;;;;;9.63;6.97;;;;;;;9.20;60.82;101197.02;100657;1152;70938;-59
2021/03/24 09:58:53;;;;;;;21.53;14.43;;;;;;;9.24;61.00;101195.70;100642;1152;83571;-59
2021/03/24 10:01:46;;;;;;;18.27;13.00;;;;;;;9.50;61.02;101192.95;100556;1152;77500;-61
2021/03/24 10:04:10;;;;;;;17.97;12.27;;;;;;;9.60;60.89;101193.66;100387;1153;61541;-59
2021/03/24 10:06:28;;;;;;;19.60;12.63;;;;;;;9.55;60.41;101193.30;100661;1152;80742;-60
2021/03/24 10:08:42;;;;;;;21.80;14.37;;;;;;;9.61;60.72;101189.95;100565;1159;71470;-60
2021/03/24 10:10:50;;;;;;;;;;;;;;;9.69;60.45;101191.83;100547;1159;85088;-63
2021/03/24 10:13:03;;;;;;;12.70;9.40;;;;;;;9.75;60.49;101193.88;100558;1152;77667;-62
2021/03/24 10:15:23;;;;;;;11.50;8.80;;;;;;;9.69;60.37;101195.38;100568;1152;61727;-62
2021/03/24 10:17:36;;;;;;;10.97;7.90;;;;;;;9.75;60.45;101194.69;100627;1152;81873;-63
2021/03/24 10:19:48;;;;;;;10.33;7.43;;;;;;;9.77;60.27;101183.75;100597;1152;71305;-62
2021/03/24 10:22:10;;;;;;;10.20;6.80;;;;;;;9.69;60.41;101183.73;100555;1153;84954;-62
2021/03/24 10:24:22;;;;;;;12.43;8.30;;;;;;;9.77;60.60;101195.40;100650;1153;77153;-61
2021/03/24 10:26:44;;;;;;;14.23;8.80;;;;;;;9.73;60.15;101185.08;100615;1152;61769;-61
2021/03/24 10:28:57;;;;;;;13.27;8.73;;;;;;;9.65;60.25;101185.05;100602;1159;81698;-60
2021/03/24 10:31:15;;;;;;;9.10;7.80;;;;;;;9.54;60.25;101186.20;100510;1159;71944;-59
2021/03/24 10:33:35;;;;;;;9.90;7.47;;;;;;;9.43;60.22;101178.41;100622;1152;84033;-60
2021/03/24 10:36:06;;;;;;;12.20;7.93;;;;;;;9.38;60.10;101178.91;100526;1152;77550;-61
2021/03/24 10:38:35;;;;;;;12.90;7.70;;;;;;;9.29;60.36;101174.48;100561;1154;61765;-60
2021/03/24 10:40:44;;;;;;;8.37;7.10;;;;;;;9.39;60.42;101179.77;100577;1152;81590;-59
2021/03/24 10:43:00;;;;;;;14.47;9.00;;;;;;;9.27;60.60;101178.34;100663;1152;71670;-59
2021/03/24 10:45:23;;;;;;;12.73;8.27;;;;;;;9.25;60.23;101172.28;100433;1153;84786;-61